createdAt,value
2023-04-29T00:01:37.599Z,12.90
2023-04-29T00:04:05.213Z,12.69
2023-04-29T00:06:32.740Z,12.92
2023-04-29T00:09:00.028Z,12.70
2023-04-29T00:11:27.392Z,12.83
2023-04-29T00:13:54.713Z,12.85
2023-04-29T00:16:21.973Z,12.79
2023-04-29T00:18:49.342Z,12.73
2023-04-29T00:21:16.682Z,12.62
2023-04-29T00:23:43.905Z,12.85
2023-04-29T00:26:11.833Z,12.95
2023-04-29T00:28:39.817Z,12.78
2023-04-29T00:31:07.064Z,12.57
2023-04-29T00:33:34.413Z,12.74
2023-04-29T00:36:02.202Z,12.63
2023-04-29T00:38:29.597Z,12.61
2023-04-29T00:40:57.323Z,12.67
2023-04-29T00:43:24.652Z,12.71
2023-04-29T00:45:52.179Z,12.87
2023-04-29T00:48:19.410Z,12.60
2023-04-29T00:50:46.718Z,12.68
2023-04-29T00:53:14.286Z,12.56
2023-04-29T00:55:42.206Z,12.74
2023-04-29T00:58:10.685Z,12.39
2023-04-29T01:00:38.147Z,12.72
2023-04-29T01:03:06.091Z,12.54
2023-04-29T01:05:33.776Z,12.57
2023-04-29T01:08:04.576Z,12.30
2023-04-29T01:10:36.843Z,12.31
2023-04-29T01:13:11.855Z,12.60
2023-04-29T01:15:48.244Z,12.78
2023-04-29T01:18:28.128Z,12.65
2023-04-29T01:20:57.669Z,12.79
2023-04-29T01:23:29.007Z,12.75
2023-04-29T01:25:57.736Z,12.59
2023-04-29T01:28:52.361Z,12.73
2023-04-29T01:31:35.796Z,12.37
2023-04-29T01:34:14.352Z,12.55
2023-04-29T01:36:44.790Z,12.72
2023-04-29T01:39:21.740Z,13.00
2023-04-29T01:42:14.641Z,13.03
2023-04-29T01:44:42.739Z,12.84
2023-04-29T01:47:13.918Z,12.61
2023-04-29T01:49:46.908Z,12.77
2023-04-29T01:52:14.625Z,12.65
2023-04-29T01:54:50.707Z,12.80
2023-04-29T01:57:19.558Z,12.78
2023-04-29T02:00:11.663Z,12.47
2023-04-29T02:02:45.036Z,12.75
2023-04-29T02:05:20.400Z,12.13
2023-04-29T02:07:55.110Z,11.95
2023-04-29T02:10:22.652Z,12.03
2023-04-29T02:12:54.850Z,11.91
2023-04-29T02:15:22.168Z,11.93
2023-04-29T02:17:49.532Z,12.06
2023-04-29T02:20:21.194Z,12.03
2023-04-29T02:22:48.430Z,12.14
2023-04-29T02:25:15.817Z,12.12
2023-04-29T02:27:43.503Z,12.27
2023-04-29T02:30:11.772Z,12.31
2023-04-29T02:32:40.969Z,12.38
2023-04-29T02:35:08.649Z,12.19
2023-04-29T02:37:35.872Z,12.33
2023-04-29T02:40:03.641Z,12.39
2023-04-29T02:42:31.445Z,12.43
2023-04-29T02:45:01.682Z,12.50
2023-04-29T02:47:29.135Z,12.28
2023-04-29T02:49:56.602Z,12.05
2023-04-29T02:52:23.857Z,12.14
2023-04-29T02:54:51.434Z,12.14
2023-04-29T02:57:18.794Z,12.16
2023-04-29T02:59:46.190Z,12.24
2023-04-29T03:02:13.697Z,12.15
2023-04-29T03:04:41.724Z,12.11
2023-04-29T03:07:09.141Z,12.39
2023-04-29T03:09:37.297Z,12.47
2023-04-29T03:12:04.952Z,12.43
2023-04-29T03:14:32.174Z,12.58
2023-04-29T03:16:59.503Z,12.49
2023-04-29T03:19:26.800Z,12.22
2023-04-29T03:21:54.224Z,12.19
2023-04-29T03:24:22.374Z,12.32
2023-04-29T03:26:49.681Z,12.23
2023-04-29T03:29:19.913Z,12.44
2023-04-29T03:31:47.668Z,12.42
2023-04-29T03:34:15.337Z,12.41
2023-04-29T03:36:48.850Z,12.57
2023-04-29T03:39:16.258Z,12.34
2023-04-29T03:41:43.612Z,12.11
2023-04-29T03:44:11.276Z,11.99
2023-04-29T03:46:40.056Z,11.86
2023-04-29T03:49:07.891Z,11.90
2023-04-29T03:51:35.218Z,11.92
2023-04-29T03:54:10.931Z,11.94
2023-04-29T03:56:38.395Z,11.70
2023-04-29T03:59:05.780Z,11.64
2023-04-29T04:01:33.454Z,11.63
2023-04-29T04:04:01.074Z,11.77
2023-04-29T04:06:29.130Z,11.70
2023-04-29T04:08:56.517Z,11.59
2023-04-29T04:11:29.298Z,11.70
2023-04-29T04:14:05.797Z,11.70
2023-04-29T04:16:33.062Z,11.91
2023-04-29T04:19:00.633Z,11.72
2023-04-29T04:21:28.970Z,11.63
2023-04-29T04:24:01.814Z,11.55
2023-04-29T04:26:30.676Z,11.63
2023-04-29T04:29:10.504Z,11.74
2023-04-29T04:32:13.264Z,11.35
2023-04-29T04:34:40.647Z,11.19
2023-04-29T04:37:08.266Z,11.05
2023-04-29T04:39:36.623Z,11.02
2023-04-29T04:42:04.264Z,11.04
2023-04-29T04:44:34.354Z,10.98
2023-04-29T04:47:11.885Z,10.95
2023-04-29T04:49:53.168Z,10.98
2023-04-29T04:52:21.941Z,10.88
2023-04-29T04:54:57.207Z,10.86
2023-04-29T04:57:27.289Z,11.04
2023-04-29T04:59:57.049Z,11.01
2023-04-29T05:02:24.923Z,10.96
2023-04-29T05:04:52.390Z,10.90
2023-04-29T05:07:21.474Z,10.90
2023-04-29T05:10:00.584Z,10.85
2023-04-29T05:12:30.974Z,11.12
2023-04-29T05:14:59.619Z,11.53
2023-04-29T05:17:28.595Z,11.34
2023-04-29T05:19:56.755Z,11.51
2023-04-29T05:22:24.550Z,11.66
2023-04-29T05:24:54.201Z,11.78
2023-04-29T05:27:22.319Z,11.74
2023-04-29T05:29:49.853Z,11.94
2023-04-29T05:32:18.365Z,11.70
2023-04-29T05:34:46.545Z,11.88
2023-04-29T05:37:14.016Z,11.98
2023-04-29T05:39:58.746Z,11.15
2023-04-29T05:42:26.320Z,10.76
2023-04-29T05:44:53.942Z,10.91
2023-04-29T05:47:21.575Z,10.88
2023-04-29T05:49:49.391Z,10.94
2023-04-29T05:52:16.851Z,11.32
2023-04-29T05:54:47.091Z,11.60
2023-04-29T05:57:14.382Z,11.68
2023-04-29T05:59:41.674Z,11.20
2023-04-29T06:02:11.025Z,11.01
2023-04-29T06:04:41.784Z,11.18
2023-04-29T06:07:28.751Z,11.26
2023-04-29T06:10:01.314Z,11.04
2023-04-29T06:12:30.288Z,10.86
2023-04-29T06:14:59.082Z,10.83
2023-04-29T06:17:29.368Z,10.90
2023-04-29T06:19:56.791Z,10.96
2023-04-29T06:22:24.644Z,11.18
2023-04-29T06:24:54.411Z,11.07
2023-04-29T06:27:40.390Z,11.01
2023-04-29T06:30:08.623Z,11.09
2023-04-29T06:32:36.192Z,11.04
2023-04-29T06:35:04.146Z,11.10
2023-04-29T06:37:49.531Z,11.27
2023-04-29T06:40:32.656Z,10.96
2023-04-29T06:43:06.254Z,10.93
2023-04-29T06:45:53.778Z,11.08
2023-04-29T06:48:23.744Z,11.09
2023-04-29T06:50:52.212Z,11.21
2023-04-29T06:53:19.914Z,11.36
2023-04-29T06:55:47.579Z,11.21
2023-04-29T06:58:18.801Z,11.34
2023-04-29T07:00:50.986Z,11.18
2023-04-29T07:03:19.023Z,11.25
2023-04-29T07:05:46.662Z,11.14
2023-04-29T07:08:14.722Z,11.33
2023-04-29T07:10:42.012Z,11.42
2023-04-29T07:13:09.300Z,11.70
2023-04-29T07:15:36.989Z,11.34
2023-04-29T07:18:05.590Z,11.41
2023-04-29T07:20:33.528Z,11.66
2023-04-29T07:23:00.992Z,11.92
2023-04-29T07:25:29.492Z,12.00
2023-04-29T07:27:57.088Z,11.88
2023-04-29T07:30:26.200Z,11.48
2023-04-29T07:32:53.893Z,11.55
2023-04-29T07:35:21.287Z,11.53
2023-04-29T07:37:49.241Z,11.55
2023-04-29T07:40:16.748Z,11.41
2023-04-29T07:42:44.356Z,11.56
2023-04-29T07:45:13.917Z,11.72
2023-04-29T07:47:41.529Z,11.94
2023-04-29T07:50:09.213Z,11.74
2023-04-29T07:52:36.708Z,11.95
2023-04-29T07:55:04.468Z,11.92
2023-04-29T07:57:31.993Z,11.91
2023-04-29T07:59:59.705Z,12.03
2023-04-29T08:02:27.160Z,11.78
2023-04-29T08:04:56.253Z,11.44
2023-04-29T08:07:24.239Z,11.63
2023-04-29T08:09:52.079Z,11.46
2023-04-29T08:12:19.366Z,11.84
2023-04-29T08:14:48.113Z,12.08
2023-04-29T08:17:15.623Z,12.02
2023-04-29T08:19:43.107Z,12.03
2023-04-29T08:22:12.322Z,12.25
2023-04-29T08:24:39.597Z,12.27
2023-04-29T08:27:07.962Z,12.29
2023-04-29T08:29:35.264Z,12.32
2023-04-29T08:32:03.165Z,12.38
2023-04-29T08:34:31.619Z,12.24
2023-04-29T08:36:58.866Z,12.17
2023-04-29T08:39:26.181Z,12.25
2023-04-29T08:41:54.850Z,12.46
2023-04-29T08:44:22.536Z,12.49
2023-04-29T08:46:50.293Z,12.45
2023-04-29T08:49:17.693Z,12.27
2023-04-29T08:51:45.448Z,12.68
2023-04-29T08:54:12.647Z,12.85
2023-04-29T08:56:40.420Z,12.85
2023-04-29T08:59:09.855Z,12.68
2023-04-29T09:01:38.441Z,12.55
2023-04-29T09:04:08.838Z,12.84
2023-04-29T09:06:36.246Z,12.84
2023-04-29T09:09:04.274Z,12.99
2023-04-29T09:11:32.308Z,12.94
2023-04-29T09:14:01.537Z,12.98
2023-04-29T09:16:29.267Z,13.45
2023-04-29T09:18:57.011Z,13.28
2023-04-29T09:21:28.551Z,13.33
2023-04-29T09:23:58.018Z,13.11
2023-04-29T09:26:26.035Z,13.14
2023-04-29T09:29:18.272Z,13.11
2023-04-29T09:31:46.361Z,13.34
2023-04-29T09:34:14.550Z,13.48
2023-04-29T09:36:48.967Z,13.95
2023-04-29T09:39:17.814Z,14.18
2023-04-29T09:41:54.275Z,13.92
2023-04-29T09:44:24.651Z,13.79
2023-04-29T09:47:09.108Z,13.32
2023-04-29T09:49:40.900Z,13.44
2023-04-29T09:52:13.468Z,13.43
2023-04-29T09:54:41.961Z,13.61
2023-04-29T09:57:11.664Z,13.73
2023-04-29T09:59:40.655Z,13.60
2023-04-29T10:02:15.684Z,13.91
2023-04-29T10:04:46.070Z,13.90
2023-04-29T10:07:17.671Z,13.58
2023-04-29T10:09:47.381Z,13.55
2023-04-29T10:12:20.808Z,13.69
2023-04-29T10:14:55.277Z,13.53
2023-04-29T10:17:53.160Z,13.69
2023-04-29T10:20:24.867Z,13.66
2023-04-29T10:22:54.859Z,13.94
2023-04-29T10:25:24.548Z,14.15
2023-04-29T10:27:54.743Z,14.44
2023-04-29T10:30:22.672Z,14.67
2023-04-29T10:32:52.776Z,14.28
2023-04-29T10:35:25.766Z,14.34
2023-04-29T10:37:53.781Z,14.24
2023-04-29T10:40:36.542Z,14.41
2023-04-29T10:43:04.744Z,14.39
2023-04-29T10:45:35.012Z,14.49
2023-04-29T10:48:02.874Z,14.36
2023-04-29T10:50:30.579Z,14.23
2023-04-29T10:52:58.771Z,14.62
2023-04-29T10:55:26.276Z,14.42
2023-04-29T10:57:56.605Z,14.58
2023-04-29T11:00:28.864Z,14.60
2023-04-29T11:03:00.904Z,14.56
2023-04-29T11:05:33.587Z,14.30
2023-04-29T11:08:12.762Z,14.55
2023-04-29T11:10:43.994Z,14.61
2023-04-29T11:13:29.283Z,14.72
2023-04-29T11:16:09.208Z,14.65
2023-04-29T11:18:37.994Z,15.23
2023-04-29T11:21:08.382Z,15.31
2023-04-29T11:23:36.535Z,15.55
2023-04-29T11:26:04.082Z,15.30
2023-04-29T11:28:32.556Z,14.66
2023-04-29T11:31:00.457Z,14.62
2023-04-29T11:33:28.266Z,14.67
2023-04-29T11:35:56.429Z,14.92
2023-04-29T11:38:30.498Z,14.71
2023-04-29T11:40:58.362Z,14.71
2023-04-29T11:43:25.944Z,14.89
2023-04-29T11:45:53.942Z,15.11
2023-04-29T11:48:22.751Z,15.44
2023-04-29T11:50:55.822Z,15.46
2023-04-29T11:53:26.972Z,15.29
2023-04-29T11:55:55.041Z,15.34
2023-04-29T11:58:23.046Z,15.29
2023-04-29T12:00:51.900Z,15.39
2023-04-29T12:03:21.138Z,15.86
2023-04-29T12:05:49.593Z,16.16
2023-04-29T12:08:22.561Z,16.13
2023-04-29T12:10:50.828Z,16.01
2023-04-29T12:13:19.045Z,15.93
2023-04-29T12:15:47.637Z,15.79
2023-04-29T12:18:15.248Z,15.96
2023-04-29T12:20:42.639Z,15.67
2023-04-29T12:23:13.362Z,15.94
2023-04-29T12:25:44.117Z,15.71
2023-04-29T12:28:14.936Z,15.66
2023-04-29T12:30:44.400Z,15.39
2023-04-29T12:33:19.856Z,15.51
2023-04-29T12:35:47.360Z,15.70
2023-04-29T12:38:17.459Z,15.83
2023-04-29T12:40:44.959Z,16.08
2023-04-29T12:43:12.453Z,15.78
2023-04-29T12:45:39.790Z,16.35
2023-04-29T12:48:12.365Z,16.62
2023-04-29T12:50:51.479Z,16.39
2023-04-29T12:53:18.981Z,16.57
2023-04-29T12:55:46.322Z,15.90
2023-04-29T12:58:13.791Z,15.82
2023-04-29T13:00:41.216Z,16.16
2023-04-29T13:03:08.703Z,16.41
2023-04-29T13:05:36.169Z,16.27
2023-04-29T13:08:06.032Z,16.49
2023-04-29T13:10:33.341Z,16.38
2023-04-29T13:13:00.676Z,16.47
2023-04-29T13:15:28.265Z,16.48
2023-04-29T13:17:55.797Z,16.69
2023-04-29T13:20:23.092Z,16.54
2023-04-29T13:22:50.945Z,16.15
2023-04-29T13:25:18.741Z,16.60
2023-04-29T13:27:46.055Z,16.69
2023-04-29T13:30:13.815Z,16.13
2023-04-29T13:32:46.300Z,16.43
2023-04-29T13:35:16.774Z,16.03
2023-04-29T13:37:44.014Z,15.97
2023-04-29T13:40:19.765Z,16.27
2023-04-29T13:42:50.608Z,16.61
2023-04-29T13:45:24.268Z,16.41
2023-04-29T13:48:07.214Z,16.41
2023-04-29T13:53:41.253Z,17.04
2023-04-29T14:03:31.467Z,16.82
2023-04-29T14:06:01.798Z,16.48
2023-04-29T14:08:29.066Z,16.32
2023-04-29T14:10:56.921Z,16.04
2023-04-29T14:13:24.287Z,16.31
2023-04-29T14:15:51.879Z,16.34
2023-04-29T14:18:19.226Z,16.32
2023-04-29T14:20:46.700Z,16.37
2023-04-29T14:23:13.964Z,16.38
2023-04-29T14:25:41.190Z,16.18
2023-04-29T14:28:08.741Z,16.15
2023-04-29T14:30:36.042Z,16.23
2023-04-29T14:33:03.429Z,16.58
2023-04-29T14:35:31.672Z,16.74
2023-04-29T14:37:58.890Z,16.82
2023-04-29T14:40:26.221Z,16.88
2023-04-29T14:42:53.495Z,16.93
2023-04-29T14:45:20.748Z,16.62
2023-04-29T14:47:48.168Z,16.45
2023-04-29T14:50:16.279Z,15.96
2023-04-29T14:52:43.659Z,16.08
2023-04-29T14:55:11.684Z,16.34
2023-04-29T14:57:38.946Z,16.75
2023-04-29T15:00:08.194Z,16.47
2023-04-29T15:02:35.577Z,16.43
2023-04-29T15:05:04.204Z,16.39
2023-04-29T15:07:32.422Z,16.54
2023-04-29T15:09:59.884Z,16.37
2023-04-29T15:12:27.213Z,16.29
2023-04-29T15:14:54.620Z,16.14
2023-04-29T15:17:22.239Z,15.89
2023-04-29T15:19:49.631Z,16.23
2023-04-29T15:22:16.859Z,16.25
2023-04-29T15:24:44.213Z,15.96
2023-04-29T15:27:11.571Z,16.01
2023-04-29T15:29:39.106Z,15.98
2023-04-29T15:32:06.534Z,16.29
2023-04-29T15:34:33.869Z,16.43
2023-04-29T15:37:01.278Z,16.18
2023-04-29T15:39:28.511Z,16.12
2023-04-29T15:41:55.800Z,16.21
2023-04-29T15:44:23.183Z,16.08
2023-04-29T15:46:50.484Z,16.28
2023-04-29T15:49:18.324Z,16.46
2023-04-29T15:51:45.597Z,16.43
2023-04-29T15:54:12.796Z,16.10
2023-04-29T15:56:40.117Z,16.10
2023-04-29T15:59:07.548Z,15.96
2023-04-29T16:01:36.574Z,16.10
2023-04-29T16:04:04.406Z,16.03
2023-04-29T16:06:32.773Z,15.62
2023-04-29T16:09:00.643Z,15.75
2023-04-29T16:11:27.910Z,15.79
2023-04-29T16:13:55.187Z,15.69
2023-04-29T16:16:23.598Z,15.68
2023-04-29T16:18:52.374Z,15.73
2023-04-29T16:21:19.642Z,16.10
2023-04-29T16:23:47.056Z,16.23
2023-04-29T16:26:14.396Z,16.25
2023-04-29T16:28:41.851Z,16.13
2023-04-29T16:31:12.943Z,16.20
2023-04-29T16:33:40.717Z,15.99
2023-04-29T16:36:08.006Z,15.86
2023-04-29T16:38:35.300Z,15.97
2023-04-29T16:41:02.781Z,16.14
2023-04-29T16:43:30.038Z,15.60
2023-04-29T16:45:57.871Z,15.67
2023-04-29T16:48:25.276Z,15.72
2023-04-29T16:50:52.484Z,15.76
2023-04-29T16:53:19.740Z,15.76
2023-04-29T16:55:47.041Z,15.66
2023-04-29T16:58:14.243Z,15.85
2023-04-29T17:00:41.695Z,15.94
2023-04-29T17:03:09.684Z,15.78
2023-04-29T17:05:37.581Z,15.42
2023-04-29T17:08:05.051Z,15.29
2023-04-29T17:10:32.263Z,15.08
2023-04-29T17:12:59.625Z,15.47
2023-04-29T17:15:26.890Z,15.41
2023-04-29T17:17:55.714Z,15.41
2023-04-29T17:20:23.252Z,15.33
2023-04-29T17:22:50.894Z,15.28
2023-04-29T17:25:18.126Z,15.26
2023-04-29T17:27:46.068Z,15.18
2023-04-29T17:30:13.584Z,15.04
2023-04-29T17:32:41.436Z,15.04
2023-04-29T17:35:09.548Z,15.06
2023-04-29T17:37:36.904Z,15.17
2023-04-29T17:40:05.018Z,14.97
2023-04-29T17:42:32.473Z,15.19
2023-04-29T17:44:59.724Z,14.81
2023-04-29T17:47:27.237Z,14.50
2023-04-29T17:49:54.991Z,14.75
2023-04-29T17:52:22.677Z,14.68
2023-04-29T17:54:50.006Z,14.48
2023-04-29T17:57:17.497Z,14.44
2023-04-29T17:59:47.195Z,14.19
2023-04-29T18:02:14.649Z,14.13
2023-04-29T18:04:42.048Z,14.25
2023-04-29T18:07:09.279Z,14.35
2023-04-29T18:09:36.526Z,14.40
2023-04-29T18:12:03.789Z,14.21
2023-04-29T18:14:31.679Z,14.23
2023-04-29T18:17:01.039Z,14.23
2023-04-29T18:19:28.886Z,14.12
2023-04-29T18:21:59.052Z,14.13
2023-04-29T18:24:26.328Z,13.71
2023-04-29T18:26:53.583Z,13.59
2023-04-29T18:29:20.984Z,13.63
2023-04-29T18:31:48.461Z,13.74
2023-04-29T18:34:16.038Z,13.63
2023-04-29T18:36:43.225Z,13.74
2023-04-29T18:39:10.545Z,13.80
2023-04-29T18:41:37.804Z,13.77
2023-04-29T18:44:05.317Z,13.74
2023-04-29T18:46:32.730Z,13.93
2023-04-29T18:49:00.125Z,13.89
2023-04-29T18:51:28.281Z,13.49
2023-04-29T18:53:55.642Z,13.73
2023-04-29T18:56:23.406Z,13.87
2023-04-29T18:58:50.940Z,13.97
2023-04-29T19:01:18.697Z,14.22
2023-04-29T19:03:46.855Z,14.20
2023-04-29T19:06:14.271Z,13.97
2023-04-29T19:08:41.728Z,13.65
2023-04-29T19:11:09.092Z,13.70
2023-04-29T19:13:36.396Z,13.63
2023-04-29T19:16:03.991Z,13.40
2023-04-29T19:18:31.314Z,13.32
2023-04-29T19:20:58.648Z,13.38
2023-04-29T19:23:25.878Z,13.31
2023-04-29T19:25:53.257Z,13.32
2023-04-29T19:28:20.856Z,13.47
2023-04-29T19:30:48.275Z,13.63
2023-04-29T19:33:15.699Z,13.71
2023-04-29T19:35:42.967Z,13.26
2023-04-29T19:38:11.144Z,13.16
2023-04-29T19:40:39.139Z,13.11
2023-04-29T19:43:06.417Z,13.06
2023-04-29T19:45:35.072Z,13.18
2023-04-29T19:48:03.074Z,12.91
2023-04-29T19:50:30.577Z,13.00
2023-04-29T19:52:58.641Z,13.04
2023-04-29T19:55:26.323Z,13.21
2023-04-29T19:57:53.871Z,13.36
2023-04-29T20:00:21.317Z,13.54
2023-04-29T20:02:50.900Z,13.64
2023-04-29T20:05:19.596Z,13.68
2023-04-29T20:07:46.901Z,13.55
2023-04-29T20:10:14.505Z,13.47
2023-04-29T20:12:42.486Z,13.38
2023-04-29T20:15:10.174Z,13.60
2023-04-29T20:17:37.707Z,13.26
2023-04-29T20:20:09.038Z,13.02
2023-04-29T20:22:36.529Z,13.12
2023-04-29T20:25:04.384Z,13.12
2023-04-29T20:27:32.115Z,13.30
2023-04-29T20:29:59.509Z,13.25
2023-04-29T20:32:27.254Z,13.06
2023-04-29T20:34:54.663Z,12.99
2023-04-29T20:37:22.022Z,12.89
2023-04-29T20:39:49.256Z,12.80
2023-04-29T20:42:16.922Z,12.77
2023-04-29T20:44:44.459Z,12.78
2023-04-29T20:47:12.510Z,12.75
2023-04-29T20:49:39.812Z,12.82
2023-04-29T20:52:07.308Z,12.67
2023-04-29T20:54:35.268Z,12.67
2023-04-29T20:57:05.492Z,12.53
2023-04-29T20:59:33.791Z,12.56
2023-04-29T21:02:01.239Z,12.40
2023-04-29T21:04:28.666Z,12.50
2023-04-29T21:06:56.335Z,12.56
2023-04-29T21:09:23.631Z,12.51
2023-04-29T21:11:51.197Z,12.53
2023-04-29T21:14:18.982Z,12.59
2023-04-29T21:16:46.453Z,12.51
2023-04-29T21:19:13.834Z,12.61
2023-04-29T21:21:41.064Z,12.71
2023-04-29T21:24:08.841Z,12.74
2023-04-29T21:26:36.168Z,12.54
2023-04-29T21:29:03.970Z,12.66
2023-04-29T21:31:31.462Z,12.72
2023-04-29T21:33:59.433Z,12.71
2023-04-29T21:36:26.884Z,12.71
2023-04-29T21:38:54.767Z,12.74
2023-04-29T21:41:26.623Z,12.69
2023-04-29T21:43:58.519Z,12.62
2023-04-29T21:46:27.849Z,12.63
2023-04-29T21:48:57.609Z,12.41
2023-04-29T21:51:25.281Z,12.48
2023-04-29T21:53:52.533Z,12.32
2023-04-29T21:56:19.900Z,12.42
2023-04-29T21:58:47.217Z,12.58
2023-04-29T22:01:27.124Z,12.63
2023-04-29T22:03:56.163Z,12.49
2023-04-29T22:06:24.064Z,12.72
2023-04-29T22:08:51.358Z,12.68
2023-04-29T22:11:21.827Z,12.76
2023-04-29T22:13:49.127Z,12.78
2023-04-29T22:16:16.777Z,12.86
2023-04-29T22:18:44.145Z,12.78
2023-04-29T22:21:13.078Z,12.87
2023-04-29T22:23:40.425Z,12.89
2023-04-29T22:26:07.569Z,13.08
2023-04-29T22:28:35.266Z,12.88
2023-04-29T22:31:02.579Z,12.84
2023-04-29T22:33:29.945Z,12.93
2023-04-29T22:35:57.212Z,12.75
2023-04-29T22:38:24.577Z,12.99
2023-04-29T22:40:52.133Z,12.94
2023-04-29T22:43:19.502Z,12.70
2023-04-29T22:45:53.913Z,12.61
2023-04-29T22:48:21.502Z,12.62
2023-04-29T22:50:52.590Z,12.69
2023-04-29T22:53:20.250Z,12.72
2023-04-29T22:55:57.495Z,12.77
2023-04-29T22:58:25.766Z,12.61
2023-04-29T23:00:59.181Z,12.63
2023-04-29T23:03:27.518Z,12.56
2023-04-29T23:06:02.398Z,12.46
2023-04-29T23:08:29.936Z,12.47
2023-04-29T23:10:57.219Z,12.44
2023-04-29T23:13:24.644Z,12.44
2023-04-29T23:15:55.331Z,12.50
2023-04-29T23:18:22.787Z,12.55
2023-04-29T23:20:50.019Z,12.67
2023-04-29T23:23:17.999Z,12.73
2023-04-29T23:25:45.927Z,12.61
2023-04-29T23:28:13.232Z,12.57
2023-04-29T23:30:40.878Z,12.63
2023-04-29T23:33:08.288Z,12.98
2023-04-29T23:35:35.687Z,12.72
2023-04-29T23:38:02.924Z,12.70
2023-04-29T23:40:31.615Z,12.64
2023-04-29T23:42:59.074Z,12.51
2023-04-29T23:45:26.378Z,12.67
2023-04-29T23:47:53.789Z,12.72
2023-04-29T23:50:21.012Z,12.73
2023-04-29T23:52:48.432Z,12.57
2023-04-29T23:55:15.735Z,12.53
2023-04-29T23:57:43.276Z,12.38
